Aérodrome :
LOGIN :

S'inscrire | Disclaimer

   EN    FR    IT 

 










Légende :    VFR   VFR Marginal   IFR   IFR Intensif   IFR Très Intensif
Visi : 
Plafond : 
>= 8 km
>= 3000ft
5 à 8 km
1000 à 3000 ft
1500m à 5 km
500 à 1000 ft
800 à 1500m
200 à 500 ft
< 800m
< 200 ft
Symboles :   Orages  Brouillard  Fortes neiges  Fortes précipitations  Vent > 20 kt
SIGMETs :   Divers  Orages  Givrage  Turbulence  Onde Orograph.  Cendres Volcan.







- Altitude de l'aérodrome : 863 ft
- Code IATA : ZAZ


LEZG - Zaragoza Aragon

DERNIER METAR :
  • 161700Z 30014KT 9999 FEW050 33/14 Q1017

METARs EXPIRÉS :
  • 161630Z 29014KT 260V320 9999 FEW050 33/15 Q1017
  • 161600Z 30011KT 250V340 9999 FEW050 33/15 Q1017
  • 161530Z 31008KT 250V010 9999 FEW050 33/15 Q1017
  • 161500Z 31006KT 250V020 9999 FEW050 32/17 Q1018
  • 161430Z 33004KT 9999 FEW050 32/17 Q1018

TAF TAF LEZG
Valide du 16 à 12h jusqu'au 17 à 12h UTC


161100Z 1612/1712 31010KT 9999 FEW050 TX35/1615Z TN19/1705Z
TEMPO 1612/1618 VRB04KT
BECMG 1618/1621 30015KT
TEMPO 1618/1702 30015G25KT
Pas de NOTAMs connus pour ce terrain.



MET'MAP, la Météo Aéronautique d'un coup d'oeil ! - Copyright ORBIFLY Décembre 2007 - Disclaimer

ORBIFLY MET'MAP TEAM :

Programmation & Développement : Alexandra Zaïnal
Conception & Développement : Baudouin d'Aumeries
Co-Programmation & Développement : Marc-Olivier Méhu
Soutien technique & logistique : Manuel Goepfert

Contact : metmap@orbifly.com




SOURCES & CREDITS :

   NOAA